createdAt,value
2019-01-12T00:00:42.048Z,41.07
2019-01-12T00:03:10.337Z,41.93
2019-01-12T00:05:38.547Z,40.77
2019-01-12T00:08:07.005Z,39.53
2019-01-12T00:10:35.218Z,40.83
2019-01-12T00:13:03.431Z,38.20
2019-01-12T00:15:31.633Z,35.77
2019-01-12T00:17:59.857Z,48.23
2019-01-12T00:20:28.061Z,45.97
2019-01-12T00:22:56.286Z,47.00
2019-01-12T00:25:24.513Z,48.63
2019-01-12T00:27:52.705Z,44.27
2019-01-12T00:30:20.921Z,42.27
2019-01-12T00:32:49.128Z,46.20
2019-01-12T00:35:17.343Z,51.17
2019-01-12T00:37:45.811Z,51.30
2019-01-12T00:40:14.023Z,50.70
2019-01-12T00:42:42.240Z,46.07
2019-01-12T00:45:12.188Z,49.73
2019-01-12T00:47:40.408Z,50.23
2019-01-12T00:50:11.874Z,45.37
2019-01-12T00:52:40.086Z,50.70
2019-01-12T00:55:08.309Z,41.90
2019-01-12T00:57:36.511Z,39.90
2019-01-12T01:00:10.788Z,46.57
2019-01-12T01:02:38.998Z,47.13
2019-01-12T01:05:09.197Z,42.73
2019-01-12T01:07:37.428Z,50.00
2019-01-12T01:10:08.966Z,53.73
2019-01-12T01:12:37.169Z,43.93
2019-01-12T01:15:08.641Z,49.73
2019-01-12T01:17:36.861Z,53.50
2019-01-12T01:20:08.449Z,55.43
2019-01-12T01:22:36.721Z,52.07
2019-01-12T01:25:06.778Z,47.23
2019-01-12T01:27:34.992Z,55.10
2019-01-12T01:30:04.085Z,53.23
2019-01-12T01:32:32.304Z,48.87
2019-01-12T01:35:00.773Z,46.97
2019-01-12T01:37:28.990Z,55.43
2019-01-12T01:39:57.197Z,56.43
2019-01-12T01:42:25.408Z,55.00
2019-01-12T01:44:53.624Z,54.67
2019-01-12T01:47:21.837Z,60.43
2019-01-12T01:49:50.065Z,59.17
2019-01-12T01:52:18.273Z,58.83
2019-01-12T01:54:52.577Z,62.13
2019-01-12T01:57:16.416Z,66.50
2019-01-12T01:59:44.621Z,63.63
2019-01-12T02:02:12.845Z,57.63
2019-01-12T02:04:41.049Z,57.67
2019-01-12T02:07:09.257Z,53.80
2019-01-12T02:09:37.473Z,60.20
2019-01-12T02:12:05.681Z,57.03
2019-01-12T02:14:33.901Z,61.73
2019-01-12T02:17:02.108Z,54.80
2019-01-12T02:19:30.334Z,57.20
2019-01-12T02:21:58.532Z,61.87
2019-01-12T02:24:26.741Z,62.17
2019-01-12T02:26:54.986Z,56.37
2019-01-12T02:29:23.195Z,51.73
2019-01-12T02:31:51.417Z,55.77
2019-01-12T02:34:19.621Z,55.47
2019-01-12T02:36:47.840Z,54.90
2019-01-12T02:39:16.294Z,56.30
2019-01-12T02:41:44.509Z,51.80
2019-01-12T02:44:12.733Z,47.27
2019-01-12T02:46:40.950Z,45.67
2019-01-12T02:49:09.180Z,48.30
2019-01-12T02:51:37.394Z,51.70
2019-01-12T02:54:05.617Z,45.33
2019-01-12T02:56:33.836Z,41.67
2019-01-12T02:59:02.042Z,44.67
2019-01-12T03:01:30.258Z,50.57
2019-01-12T03:03:58.472Z,49.20
2019-01-12T03:06:26.926Z,46.80
2019-01-12T03:08:55.132Z,42.80
2019-01-12T03:11:23.370Z,48.83
2019-01-12T03:13:51.565Z,52.77
2019-01-12T03:16:19.770Z,46.97
2019-01-12T03:18:47.985Z,44.53
2019-01-12T03:21:16.192Z,43.03
2019-01-12T03:23:44.409Z,43.53
2019-01-12T03:26:12.616Z,38.90
2019-01-12T03:28:40.828Z,40.87
2019-01-12T03:31:09.138Z,40.17
2019-01-12T03:33:37.360Z,40.60
2019-01-12T03:36:05.580Z,37.27
2019-01-12T03:38:33.784Z,36.17
2019-01-12T03:41:02.009Z,37.30
2019-01-12T03:43:30.208Z,34.27
2019-01-12T03:45:58.413Z,32.53
2019-01-12T03:48:26.629Z,33.73
2019-01-12T03:50:54.843Z,25.50
2019-01-12T03:53:23.055Z,31.77
2019-01-12T03:55:51.287Z,25.43
2019-01-12T03:58:19.494Z,28.67
2019-01-12T04:00:47.713Z,26.90
2019-01-12T04:03:15.928Z,26.60
2019-01-12T04:05:44.136Z,28.80
2019-01-12T04:08:12.345Z,28.73
2019-01-12T04:10:40.559Z,29.83
2019-01-12T04:13:08.816Z,34.33
2019-01-12T04:15:37.040Z,30.17
2019-01-12T04:18:05.259Z,34.03
2019-01-12T04:20:33.499Z,36.47
2019-01-12T04:23:01.721Z,40.73
2019-01-12T04:25:33.951Z,43.63
2019-01-12T04:28:00.102Z,41.60
2019-01-12T04:30:28.308Z,38.73
2019-01-12T04:32:56.512Z,37.93
2019-01-12T04:35:24.981Z,38.03
2019-01-12T04:37:53.190Z,33.67
2019-01-12T04:40:21.408Z,31.47
2019-01-12T04:42:49.629Z,30.73
2019-01-12T04:45:17.836Z,31.50
2019-01-12T04:47:46.045Z,26.73
2019-01-12T04:50:15.346Z,24.63
2019-01-12T04:52:43.629Z,27.17
2019-01-12T04:55:13.503Z,23.87
2019-01-12T04:57:41.706Z,23.67
2019-01-12T05:00:15.708Z,29.87
2019-01-12T05:02:43.923Z,21.20
2019-01-12T05:05:12.138Z,26.23
2019-01-12T05:07:40.357Z,23.10
2019-01-12T05:10:11.678Z,22.83
2019-01-12T05:12:39.880Z,22.67
2019-01-12T05:15:13.257Z,25.50
2019-01-12T05:17:41.481Z,24.90
2019-01-12T05:20:16.053Z,23.40
2019-01-12T05:22:44.298Z,24.87
2019-01-12T05:25:12.511Z,21.10
2019-01-12T05:27:40.704Z,22.70
2019-01-12T05:30:12.195Z,17.63
2019-01-12T05:32:40.399Z,18.00
2019-01-12T05:35:08.675Z,17.07
2019-01-12T05:37:36.885Z,17.00
2019-01-12T05:40:08.336Z,20.53
2019-01-12T05:42:36.614Z,20.93
2019-01-12T05:45:07.846Z,24.80
2019-01-12T05:47:36.073Z,25.40
2019-01-12T05:50:07.709Z,22.53
2019-01-12T05:52:35.934Z,22.83
2019-01-12T05:55:05.106Z,23.20
2019-01-12T05:57:33.322Z,22.70
2019-01-12T06:00:01.521Z,25.57
2019-01-12T06:02:29.829Z,29.60
2019-01-12T06:04:58.042Z,26.27
2019-01-12T06:07:26.259Z,25.97
2019-01-12T06:09:54.466Z,27.47
2019-01-12T06:12:22.670Z,35.23
2019-01-12T06:14:50.886Z,32.43
2019-01-12T06:17:19.125Z,34.13
2019-01-12T06:19:47.336Z,33.20
2019-01-12T06:22:15.541Z,36.37
2019-01-12T06:24:43.768Z,39.37
2019-01-12T06:27:11.976Z,42.00
2019-01-12T06:29:40.181Z,45.93
2019-01-12T06:32:08.409Z,45.57
2019-01-12T06:34:36.616Z,42.17
2019-01-12T06:37:04.823Z,45.37
2019-01-12T06:39:33.057Z,48.53
2019-01-12T06:42:01.261Z,55.07
2019-01-12T06:44:29.469Z,50.53
2019-01-12T06:46:57.691Z,54.37
2019-01-12T06:49:25.901Z,51.23
2019-01-12T06:51:54.124Z,53.77
2019-01-12T06:54:22.471Z,64.17
2019-01-12T06:56:51.508Z,57.73
2019-01-12T06:59:19.727Z,54.87
2019-01-12T07:01:47.934Z,65.03
2019-01-12T07:04:16.153Z,58.10
2019-01-12T07:06:44.367Z,60.10
2019-01-12T07:09:12.589Z,70.13
2019-01-12T07:11:40.790Z,63.77
2019-01-12T07:14:08.994Z,70.10
2019-01-12T07:16:37.200Z,70.07
2019-01-12T07:19:05.426Z,70.73
2019-01-12T07:21:33.650Z,68.53
2019-01-12T07:24:01.861Z,70.87
2019-01-12T07:26:30.083Z,67.83
2019-01-12T07:28:58.300Z,58.83
2019-01-12T07:31:26.515Z,70.97
2019-01-12T07:33:54.726Z,70.13
2019-01-12T07:36:22.942Z,70.33
2019-01-12T07:38:51.151Z,70.30
2019-01-12T07:41:19.377Z,68.97
2019-01-12T07:43:47.597Z,73.17
2019-01-12T07:46:15.817Z,64.83
2019-01-12T07:48:44.031Z,70.90
2019-01-12T07:51:12.250Z,71.87
2019-01-12T07:53:40.455Z,56.13
2019-01-12T07:56:08.658Z,65.93
2019-01-12T07:58:36.881Z,66.53
2019-01-12T08:01:05.098Z,58.67
2019-01-12T08:03:33.329Z,51.33
2019-01-12T08:06:01.541Z,61.20
2019-01-12T08:08:29.778Z,57.00
2019-01-12T08:10:57.988Z,55.90
2019-01-12T08:13:26.214Z,50.40
2019-01-12T08:15:54.442Z,49.87
2019-01-12T08:18:22.665Z,46.20
2019-01-12T08:20:50.860Z,49.40
2019-01-12T08:23:19.130Z,49.43
2019-01-12T08:25:47.348Z,51.93
2019-01-12T08:28:15.558Z,48.53
2019-01-12T08:30:43.781Z,54.97
2019-01-12T08:33:11.998Z,53.90
2019-01-12T08:35:40.219Z,55.43
2019-01-12T08:38:08.428Z,52.93
2019-01-12T08:40:36.629Z,53.73
2019-01-12T08:43:04.852Z,50.50
2019-01-12T08:45:33.068Z,55.50
2019-01-12T08:48:01.295Z,52.53
2019-01-12T08:50:29.508Z,52.87
2019-01-12T08:52:57.714Z,60.07
2019-01-12T08:55:25.938Z,50.57
2019-01-12T08:57:54.152Z,59.90
2019-01-12T09:00:22.361Z,57.70
2019-01-12T09:02:50.648Z,52.33
2019-01-12T09:05:18.874Z,58.20
2019-01-12T09:07:47.082Z,53.70
2019-01-12T09:10:19.645Z,56.27
2019-01-12T09:12:48.073Z,57.57
2019-01-12T09:15:16.280Z,50.27
2019-01-12T09:17:44.507Z,50.50
2019-01-12T09:20:15.341Z,44.20
2019-01-12T09:22:43.865Z,48.67
2019-01-12T09:25:13.321Z,48.10
2019-01-12T09:27:41.557Z,44.47
2019-01-12T09:30:15.709Z,49.63
2019-01-12T09:32:43.937Z,46.17
2019-01-12T09:35:12.161Z,45.50
2019-01-12T09:37:40.377Z,50.93
2019-01-12T09:40:11.884Z,40.67
2019-01-12T09:42:40.089Z,43.13
2019-01-12T09:45:11.145Z,47.60
2019-01-12T09:47:39.381Z,44.77
2019-01-12T09:50:16.664Z,44.33
2019-01-12T09:52:44.883Z,45.13
2019-01-12T09:55:13.091Z,45.93
2019-01-12T09:57:41.389Z,48.60
2019-01-12T10:00:18.197Z,44.97
2019-01-12T10:03:05.845Z,43.70
2019-01-12T10:05:34.069Z,40.57
2019-01-12T10:08:02.295Z,49.40
2019-01-12T10:10:30.497Z,42.10
2019-01-12T10:12:58.729Z,46.83
2019-01-12T10:15:26.929Z,41.50
2019-01-12T10:17:55.218Z,44.27
2019-01-12T10:20:23.455Z,44.53
2019-01-12T10:22:51.669Z,45.10
2019-01-12T10:25:19.899Z,33.23
2019-01-12T10:27:48.140Z,39.53
2019-01-12T10:30:19.692Z,41.93
2019-01-12T10:32:47.909Z,31.53
2019-01-12T10:35:16.133Z,45.93
2019-01-12T10:37:44.373Z,42.33
2019-01-12T10:40:16.002Z,38.47
2019-01-12T10:42:44.221Z,42.67
2019-01-12T10:45:14.670Z,41.50
2019-01-12T10:47:44.652Z,42.30
2019-01-12T10:50:24.476Z,37.77
2019-01-12T10:52:52.713Z,43.27
2019-01-12T10:55:20.934Z,40.27
2019-01-12T10:57:49.154Z,37.00
2019-01-12T11:00:20.863Z,36.43
2019-01-12T11:02:49.064Z,31.37
2019-01-12T11:05:17.465Z,33.67
2019-01-12T11:07:45.695Z,31.27
2019-01-12T11:10:13.920Z,29.30
2019-01-12T11:12:42.163Z,33.73
2019-01-12T11:15:15.853Z,32.50
2019-01-12T11:17:44.073Z,31.17
2019-01-12T11:20:13.215Z,27.23
2019-01-12T11:22:47.330Z,26.63
2019-01-12T11:25:16.424Z,27.23
2019-01-12T11:27:44.639Z,29.20
2019-01-12T11:30:18.402Z,30.83
2019-01-12T11:32:46.603Z,32.33
2019-01-12T11:35:14.835Z,30.03
2019-01-12T11:37:43.120Z,33.33
2019-01-12T11:40:14.609Z,29.33
2019-01-12T11:42:42.821Z,38.17
2019-01-12T11:45:11.038Z,30.17
2019-01-12T11:47:39.240Z,28.40
2019-01-12T11:50:13.441Z,32.90
2019-01-12T11:52:41.661Z,31.43
2019-01-12T11:55:12.611Z,32.07
2019-01-12T11:57:40.849Z,31.23
2019-01-12T12:00:21.400Z,40.90
2019-01-12T12:02:49.645Z,33.43
2019-01-12T12:05:17.854Z,34.27
2019-01-12T12:07:46.064Z,32.53
2019-01-12T12:10:16.236Z,32.30
2019-01-12T12:12:44.447Z,32.87
2019-01-12T12:15:16.002Z,36.77
2019-01-12T12:17:44.225Z,39.00
2019-01-12T12:20:21.459Z,39.63
2019-01-12T12:22:49.656Z,33.17
2019-01-12T12:25:17.872Z,40.53
2019-01-12T12:27:46.120Z,41.90
2019-01-12T12:30:20.644Z,45.33
2019-01-12T12:32:48.851Z,41.33
2019-01-12T12:35:17.094Z,35.23
2019-01-12T12:37:45.308Z,36.07
2019-01-12T12:40:16.770Z,35.70
2019-01-12T12:42:45.001Z,34.43
2019-01-12T12:45:16.232Z,36.13
2019-01-12T12:47:44.477Z,32.73
2019-01-12T12:50:15.326Z,37.97
2019-01-12T12:52:43.544Z,37.63
2019-01-12T12:55:13.097Z,39.17
2019-01-12T12:57:41.321Z,37.93
2019-01-12T13:00:15.484Z,33.33
2019-01-12T13:02:43.729Z,30.53
2019-01-12T13:05:11.997Z,30.47
2019-01-12T13:07:40.211Z,31.67
2019-01-12T13:10:20.347Z,33.83
2019-01-12T13:12:48.568Z,27.37
2019-01-12T13:15:16.783Z,29.87
2019-01-12T13:17:45.128Z,26.53
2019-01-12T13:20:16.118Z,25.90
2019-01-12T13:22:44.434Z,26.70
2019-01-12T13:25:12.637Z,25.17
2019-01-12T13:27:40.864Z,25.47
2019-01-12T13:30:15.348Z,20.97
2019-01-12T13:32:43.570Z,25.57
2019-01-12T13:35:11.788Z,26.73
2019-01-12T13:37:40.053Z,23.90
2019-01-12T13:40:14.078Z,21.10
2019-01-12T13:42:42.300Z,24.83
2019-01-12T13:45:16.003Z,28.33
2019-01-12T13:47:44.218Z,24.30
2019-01-12T13:50:15.669Z,26.93
2019-01-12T13:52:43.879Z,24.57
2019-01-12T13:55:14.561Z,27.83
2019-01-12T13:57:47.587Z,30.23
2019-01-12T14:00:24.369Z,24.77
2019-01-12T14:02:52.595Z,22.93
2019-01-12T14:05:20.809Z,27.90
2019-01-12T14:07:55.837Z,27.67
2019-01-12T14:10:22.084Z,28.70
2019-01-12T14:12:50.309Z,26.70
2019-01-12T14:15:19.581Z,21.00
2019-01-12T14:17:47.789Z,19.23
2019-01-12T14:20:19.313Z,20.67
2019-01-12T14:22:47.528Z,20.33
2019-01-12T14:25:15.752Z,19.90
2019-01-12T14:27:44.032Z,20.27
2019-01-12T14:30:18.349Z,17.27
2019-01-12T14:32:46.578Z,18.13
2019-01-12T14:35:17.613Z,14.47
2019-01-12T14:37:45.832Z,15.80
2019-01-12T14:40:17.187Z,16.83
2019-01-12T14:42:45.409Z,16.57
2019-01-12T14:45:19.154Z,14.13
2019-01-12T14:47:47.420Z,15.37
2019-01-12T14:50:15.630Z,15.03
2019-01-12T14:52:43.874Z,13.70
2019-01-12T14:55:15.569Z,14.07
2019-01-12T14:57:43.794Z,14.57
2019-01-12T15:00:20.645Z,15.33
2019-01-12T15:02:48.861Z,13.70
2019-01-12T15:05:19.039Z,18.20
2019-01-12T15:07:47.326Z,16.37
2019-01-12T15:10:18.350Z,18.47
2019-01-12T15:12:47.493Z,17.77
2019-01-12T15:15:18.180Z,16.27
2019-01-12T15:17:46.470Z,19.60
2019-01-12T15:20:20.470Z,16.07
2019-01-12T15:22:48.730Z,17.10
2019-01-12T15:25:16.982Z,17.70
2019-01-12T15:27:45.215Z,23.53
2019-01-12T15:30:19.197Z,24.40
2019-01-12T15:32:47.414Z,26.40
2019-01-12T15:35:17.746Z,29.30
2019-01-12T15:37:45.955Z,31.47
2019-01-12T15:40:17.417Z,31.20
2019-01-12T15:42:45.633Z,33.83
2019-01-12T15:45:19.400Z,37.87
2019-01-12T15:47:47.619Z,37.00
2019-01-12T15:50:19.069Z,39.83
2019-01-12T15:52:47.289Z,39.03
2019-01-12T15:55:15.505Z,40.47
2019-01-12T15:57:43.735Z,41.73
2019-01-12T16:00:15.197Z,42.70
2019-01-12T16:02:43.414Z,46.30
2019-01-12T16:05:11.642Z,43.27
2019-01-12T16:07:39.895Z,51.13
2019-01-12T16:10:11.305Z,38.27
2019-01-12T16:12:39.526Z,46.80
2019-01-12T16:15:10.990Z,52.13
2019-01-12T16:17:39.210Z,41.47
2019-01-12T16:20:10.691Z,37.40
2019-01-12T16:22:38.906Z,46.93
2019-01-12T16:25:08.165Z,44.40
2019-01-12T16:27:36.409Z,44.03
2019-01-12T16:30:07.946Z,44.97
2019-01-12T16:32:36.157Z,39.77
2019-01-12T16:35:06.903Z,36.73
2019-01-12T16:37:35.116Z,35.07
2019-01-12T16:40:06.522Z,29.80
2019-01-12T16:42:34.731Z,27.40
2019-01-12T16:45:02.950Z,28.10
2019-01-12T16:47:31.164Z,27.13
2019-01-12T16:49:59.389Z,29.30
2019-01-12T16:52:27.609Z,31.63
2019-01-12T16:54:55.831Z,29.47
2019-01-12T16:57:24.040Z,25.93
2019-01-12T16:59:52.253Z,22.70
2019-01-12T17:02:20.478Z,23.27
2019-01-12T17:04:48.706Z,17.53
2019-01-12T17:07:16.902Z,15.40
2019-01-12T17:09:45.121Z,16.83
2019-01-12T17:12:13.329Z,14.70
2019-01-12T17:14:41.553Z,19.53
2019-01-12T17:17:09.769Z,17.93
2019-01-12T17:19:38.056Z,20.47
2019-01-12T17:22:06.269Z,17.73
2019-01-12T17:24:34.478Z,17.07
2019-01-12T17:27:02.700Z,16.27
2019-01-12T17:29:30.905Z,12.97
2019-01-12T17:31:59.145Z,10.27
2019-01-12T17:34:27.361Z,8.37
2019-01-12T17:36:58.852Z,7.90
2019-01-12T17:39:25.500Z,10.07
2019-01-12T17:41:53.722Z,6.87
2019-01-12T17:44:41.349Z,8.10
2019-01-12T17:47:09.858Z,9.63
2019-01-12T17:49:38.087Z,13.03
2019-01-12T17:52:06.289Z,9.67
2019-01-12T17:54:34.493Z,11.07
2019-01-12T17:57:02.708Z,14.90
2019-01-12T17:59:30.922Z,15.63
2019-01-12T18:01:59.212Z,17.07
2019-01-12T18:04:27.519Z,19.23
2019-01-12T18:06:55.842Z,22.53
2019-01-12T18:09:24.061Z,23.33
2019-01-12T18:11:52.273Z,26.93
2019-01-12T18:14:20.499Z,31.07
2019-01-12T18:16:48.707Z,28.63
2019-01-12T18:19:17.016Z,34.83
2019-01-12T18:21:45.228Z,31.93
2019-01-12T18:24:13.430Z,32.33
2019-01-12T18:26:41.645Z,35.30
2019-01-12T18:29:09.875Z,33.67
2019-01-12T18:31:38.081Z,38.90
2019-01-12T18:34:06.310Z,32.53
2019-01-12T18:36:38.671Z,31.60
2019-01-12T18:39:06.983Z,31.97
2019-01-12T18:41:35.217Z,34.00
2019-01-12T18:44:03.461Z,30.47
2019-01-12T18:46:31.680Z,34.17
2019-01-12T18:48:59.904Z,28.07
2019-01-12T18:51:28.125Z,32.40
2019-01-12T18:53:56.359Z,31.20
2019-01-12T18:56:24.575Z,32.53
2019-01-12T18:58:58.924Z,32.00
2019-01-12T19:01:22.841Z,31.00
2019-01-12T19:03:51.083Z,32.83
2019-01-12T19:06:19.326Z,26.73
2019-01-12T19:08:47.554Z,28.20
2019-01-12T19:11:15.788Z,27.90
2019-01-12T19:13:44.008Z,27.80
2019-01-12T19:16:12.231Z,29.60
2019-01-12T19:18:40.467Z,36.27
2019-01-12T19:21:09.522Z,30.97
2019-01-12T19:23:37.738Z,34.87
2019-01-12T19:26:05.949Z,30.33
2019-01-12T19:28:34.236Z,31.03
2019-01-12T19:31:02.460Z,30.77
2019-01-12T19:33:30.993Z,35.70
2019-01-12T19:35:59.876Z,32.90
2019-01-12T19:38:28.090Z,36.47
2019-01-12T19:40:56.303Z,35.93
2019-01-12T19:43:24.522Z,31.67
2019-01-12T19:45:52.746Z,39.37
2019-01-12T19:48:20.976Z,35.83
2019-01-12T19:50:49.203Z,36.47
2019-01-12T19:53:17.409Z,38.20
2019-01-12T19:55:45.750Z,35.40
2019-01-12T19:58:13.950Z,38.47
2019-01-12T20:00:42.185Z,32.23
2019-01-12T20:03:10.393Z,35.80
2019-01-12T20:05:38.609Z,41.70
2019-01-12T20:08:06.816Z,38.23
2019-01-12T20:10:35.027Z,35.30
2019-01-12T20:13:03.255Z,38.97
2019-01-12T20:15:31.460Z,37.60
2019-01-12T20:17:59.703Z,31.07
2019-01-12T20:20:27.937Z,38.40
2019-01-12T20:22:56.158Z,36.27
2019-01-12T20:25:27.485Z,39.57
2019-01-12T20:27:55.836Z,32.80
2019-01-12T20:30:29.988Z,39.07
2019-01-12T20:33:25.559Z,37.27
2019-01-12T20:36:06.033Z,39.97
2019-01-12T20:38:46.527Z,34.60
2019-01-12T20:41:17.989Z,32.43
2019-01-12T20:43:58.336Z,38.83
2019-01-12T20:46:35.526Z,40.83
2019-01-12T20:49:07.002Z,43.60
2019-01-12T20:51:50.637Z,38.60
2019-01-12T20:54:36.925Z,36.87
2019-01-12T20:57:17.358Z,37.07
2019-01-12T20:59:57.505Z,36.73
2019-01-12T21:02:47.795Z,33.93
2019-01-12T21:05:29.024Z,38.17
2019-01-12T21:08:24.620Z,33.33
2019-01-12T21:10:56.109Z,31.70
2019-01-12T21:13:39.356Z,38.50
2019-01-12T21:16:13.763Z,39.33
2019-01-12T21:18:41.997Z,32.50
2019-01-12T21:21:10.210Z,37.40
2019-01-12T21:23:38.460Z,33.40
2019-01-12T21:26:06.779Z,36.87
2019-01-12T21:28:34.990Z,37.07
2019-01-12T21:31:03.273Z,33.23
2019-01-12T21:33:31.495Z,39.60
2019-01-12T21:35:59.709Z,36.77
2019-01-12T21:38:27.934Z,33.17
2019-01-12T21:40:56.141Z,29.83
2019-01-12T21:43:24.359Z,32.87
2019-01-12T21:45:52.581Z,33.73
2019-01-12T21:48:20.785Z,27.77
2019-01-12T21:50:49.002Z,33.90
2019-01-12T21:53:17.208Z,33.33
2019-01-12T21:55:45.417Z,26.90
2019-01-12T21:58:13.633Z,31.27
2019-01-12T22:00:41.837Z,36.77
2019-01-12T22:03:10.116Z,30.13
2019-01-12T22:05:38.347Z,32.30
2019-01-12T22:08:06.562Z,27.70
2019-01-12T22:10:34.774Z,38.30
2019-01-12T22:13:03.012Z,35.97
2019-01-12T22:15:31.216Z,32.57
2019-01-12T22:17:59.417Z,36.63
2019-01-12T22:20:27.632Z,31.97
2019-01-12T22:22:55.844Z,34.03
2019-01-12T22:25:24.041Z,39.03
2019-01-12T22:27:52.257Z,37.53
2019-01-12T22:30:20.490Z,36.73
2019-01-12T22:32:48.713Z,38.00
2019-01-12T22:35:16.909Z,48.47
2019-01-12T22:37:45.225Z,38.57
2019-01-12T22:40:16.321Z,42.33
2019-01-12T22:42:44.628Z,38.83
2019-01-12T22:45:12.839Z,36.07
2019-01-12T22:47:41.090Z,37.80
2019-01-12T22:50:12.553Z,38.97
2019-01-12T22:52:40.766Z,36.40
2019-01-12T22:55:13.656Z,40.87
2019-01-12T22:57:42.018Z,41.87
2019-01-12T23:00:18.837Z,36.10
2019-01-12T23:02:47.041Z,40.77
2019-01-12T23:05:15.253Z,39.83
2019-01-12T23:07:43.474Z,40.80
2019-01-12T23:10:12.550Z,40.27
2019-01-12T23:12:40.757Z,44.10
2019-01-12T23:15:08.972Z,39.83
2019-01-12T23:17:37.184Z,42.90
2019-01-12T23:20:07.366Z,37.33
2019-01-12T23:22:35.694Z,39.23
2019-01-12T23:25:05.564Z,40.20
2019-01-12T23:27:33.831Z,43.10
2019-01-12T23:30:21.477Z,48.27
2019-01-12T23:32:51.309Z,46.93
2019-01-12T23:35:19.542Z,47.57
2019-01-12T23:37:47.826Z,49.53
2019-01-12T23:40:16.037Z,49.13
2019-01-12T23:42:44.342Z,54.43
2019-01-12T23:45:15.137Z,53.03
2019-01-12T23:47:43.356Z,53.03
2019-01-12T23:50:13.801Z,55.23
2019-01-12T23:52:42.046Z,58.40
2019-01-12T23:55:10.253Z,52.63
2019-01-12T23:57:38.728Z,55.53
